Time;durP1;ratioP1;P1;durP2;ratioP2;P2;SDS_P1;SDS_P2;PMS_P1;PMS_P2;Temp;Humidity;BMP_temperature;BMP_pressure;BME280_temperature;BME280_humidity;BME280_pressure;Samples;Min_cycle;Max_cycle;Signal;HPM_P1;HPM_P2
2022/04/24 00:01:57;;;;;;;6.53;5.13;;;15.50;99.90;;;;;;5116172;28;20062;-63
2022/04/24 00:04:24;;;;;;;5.65;4.90;;;15.60;99.90;;;;;;5117048;28;20036;-63
2022/04/24 00:06:53;;;;;;;6.80;5.03;;;15.50;99.90;;;;;;5117122;28;20035;-63
2022/04/24 00:09:20;;;;;;;5.45;4.95;;;15.30;99.90;;;;;;5116813;28;20039;-62
2022/04/24 00:11:46;;;;;;;6.43;5.45;;;15.50;99.90;;;;;;5115920;28;20080;-62
2022/04/24 00:14:12;;;;;;;5.60;4.95;;;15.40;99.90;;;;;;5116837;28;20044;-62
2022/04/24 00:16:40;;;;;;;6.72;5.03;;;15.30;99.90;;;;;;5116745;28;20464;-62
2022/04/24 00:19:06;;;;;;;5.53;4.95;;;15.20;99.90;;;;;;5115938;28;20091;-62
2022/04/24 00:21:32;;;;;;;5.13;4.63;;;15.10;99.90;;;;;;5116815;28;20020;-61
2022/04/24 00:23:59;;;;;;;6.97;5.22;;;15.00;99.90;;;;;;5116018;28;20027;-63
2022/04/24 00:26:25;;;;;;;6.00;4.88;;;14.90;99.90;;;;;;5115947;28;20047;-63
2022/04/24 00:28:52;;;;;;;7.20;4.57;;;14.80;99.90;;;;;;5116927;28;20379;-63
2022/04/24 00:31:17;;;;;;;6.28;5.20;;;14.70;99.90;;;;;;5115969;28;20092;-62
2022/04/24 00:33:43;;;;;;;6.00;5.05;;;14.60;99.90;;;;;;5117244;28;20028;-63
2022/04/24 00:36:09;;;;;;;5.25;4.75;;;14.50;99.90;;;;;;5119489;28;20038;-63
2022/04/24 00:38:35;;;;;;;7.13;4.97;;;14.40;99.90;;;;;;5120321;28;20031;-61
2022/04/24 00:41:02;;;;;;;5.57;4.72;;;14.40;99.90;;;;;;5120182;28;20093;-62
2022/04/24 00:43:28;;;;;;;5.50;5.00;;;14.40;99.90;;;;;;5120138;28;20035;-61
2022/04/24 00:46:14;;;;;;;7.90;4.95;;;14.40;99.90;;;;;;5120139;28;20093;-62
2022/04/24 00:48:40;;;;;;;6.47;4.40;;;14.30;99.90;;;;;;5119951;28;20036;-62
2022/04/24 00:51:10;;;;;;;6.57;4.53;;;14.30;99.90;;;;;;5119984;28;20131;-62
2022/04/24 00:53:36;;;;;;;5.22;4.72;;;14.20;99.90;;;;;;5119887;28;20036;-62
2022/04/24 00:56:03;;;;;;;5.63;4.65;;;14.10;99.90;;;;;;5118958;28;20031;-62
2022/04/24 00:58:30;;;;;;;4.90;4.10;;;14.20;99.90;;;;;;5120159;28;20034;-62
2022/04/24 01:00:56;;;;;;;5.88;4.28;;;14.00;99.90;;;;;;5119307;28;20042;-62
2022/04/24 01:03:23;;;;;;;6.93;4.60;;;14.00;99.90;;;;;;5119130;28;20350;-62
2022/04/24 01:05:49;;;;;;;7.57;4.38;;;14.00;99.90;;;;;;5118981;28;20046;-62
2022/04/24 01:08:15;;;;;;;5.30;4.63;;;13.90;99.90;;;;;;5119625;28;20028;-62
2022/04/24 01:10:41;;;;;;;4.95;4.45;;;14.00;99.90;;;;;;5119559;28;20091;-62
2022/04/24 01:13:07;;;;;;;4.90;4.45;;;13.90;99.90;;;;;;5119018;28;20050;-61
2022/04/24 01:15:33;;;;;;;6.35;4.60;;;13.80;99.90;;;;;;5118863;28;20035;-62
2022/04/24 01:18:00;;;;;;;6.38;4.50;;;13.80;99.90;;;;;;5119462;28;20046;-62
2022/04/24 01:20:26;;;;;;;6.47;4.43;;;13.80;99.90;;;;;;5119383;28;20313;-62
2022/04/24 01:22:52;;;;;;;6.55;4.35;;;13.80;99.90;;;;;;5101565;28;20104;-60
2022/04/24 01:25:19;;;;;;;5.28;4.78;;;13.70;99.90;;;;;;5119232;28;20063;-62
2022/04/24 01:27:45;;;;;;;4.88;4.28;;;13.60;99.90;;;;;;5118478;28;20039;-62
2022/04/24 01:30:11;;;;;;;4.93;4.35;;;13.60;99.90;;;;;;5119434;28;20020;-62
2022/04/24 01:32:40;;;;;;;6.53;4.50;;;13.60;99.90;;;;;;5119316;28;20016;-62
2022/04/24 01:35:07;;;;;;;5.82;4.30;;;13.60;99.90;;;;;;5119101;28;20016;-62
2022/04/24 01:37:33;;;;;;;5.22;4.43;;;13.50;99.90;;;;;;5119161;28;20040;-62
2022/04/24 01:40:00;;;;;;;4.47;4.07;;;13.50;99.90;;;;;;5118949;28;20142;-62
2022/04/24 01:42:26;;;;;;;4.88;4.13;;;13.50;99.90;;;;;;5118864;28;20039;-62
2022/04/24 01:44:52;;;;;;;4.60;4.00;;;13.40;99.90;;;;;;5118652;28;20112;-61
2022/04/24 01:47:17;;;;;;;5.10;4.13;;;13.40;99.90;;;;;;5117579;28;20024;-61
2022/04/24 01:49:43;;;;;;;5.05;4.50;;;13.40;99.90;;;;;;5118903;28;20036;-61
2022/04/24 01:52:09;;;;;;;5.00;4.50;;;13.40;99.90;;;;;;5119017;28;20354;-61
2022/04/24 01:54:35;;;;;;;5.35;4.82;;;13.30;99.90;;;;;;5118113;28;20027;-61
2022/04/24 01:57:01;;;;;;;4.75;4.32;;;13.30;99.90;;;;;;5118781;28;20084;-62
2022/04/24 01:59:27;;;;;;;4.57;4.20;;;13.30;99.90;;;;;;5118829;28;20071;-61
2022/04/24 02:01:53;;;;;;;4.50;4.10;;;13.30;99.90;;;;;;5117922;28;20073;-61
2022/04/24 02:04:22;;;;;;;6.07;4.05;;;13.30;99.90;;;;;;5119056;28;20046;-62
2022/04/24 02:06:50;;;;;;;6.30;3.95;;;13.30;99.90;;;;;;5118477;28;20040;-61
2022/04/24 02:09:16;;;;;;;5.95;4.03;;;13.30;99.90;;;;;;5118531;28;20040;-62
2022/04/24 02:11:41;;;;;;;5.32;4.60;;;13.20;99.90;;;;;;5117418;28;20024;-62
2022/04/24 02:14:07;;;;;;;5.07;4.00;;;13.30;99.90;;;;;;5118333;28;20343;-61
2022/04/24 02:16:33;;;;;;;4.47;4.10;;;13.20;99.90;;;;;;5118430;28;20040;-61
2022/04/24 02:18:59;;;;;;;4.25;3.85;;;13.10;99.90;;;;;;5118253;28;20032;-62
2022/04/24 02:21:27;;;;;;;4.55;4.22;;;13.20;99.90;;;;;;5118110;28;20303;-61
2022/04/24 02:23:53;;;;;;;4.80;4.40;;;13.20;99.90;;;;;;5118144;28;20042;-62
2022/04/24 02:26:19;;;;;;;5.57;4.30;;;13.30;99.90;;;;;;5117385;28;20366;-61
2022/04/24 02:28:45;;;;;;;4.53;4.10;;;13.40;99.90;;;;;;5117899;28;20042;-60
2022/04/24 02:31:10;;;;;;;4.45;4.10;;;13.40;99.90;;;;;;5118341;28;20383;-61
2022/04/24 02:33:36;;;;;;;4.50;4.10;;;13.40;99.90;;;;;;5117382;28;20395;-61
2022/04/24 02:36:03;;;;;;;4.47;4.07;;;13.60;99.90;;;;;;5117734;28;20311;-61
2022/04/24 02:38:29;;;;;;;4.65;4.25;;;13.60;99.90;;;;;;5117080;28;20043;-62
2022/04/24 02:40:55;;;;;;;5.28;4.28;;;13.50;99.90;;;;;;5117791;28;20031;-61
2022/04/24 02:43:21;;;;;;;4.82;4.43;;;13.50;99.90;;;;;;5117884;28;20039;-61
2022/04/24 02:45:46;;;;;;;4.43;4.10;;;13.50;99.90;;;;;;5116977;28;20040;-61
2022/04/24 02:48:13;;;;;;;4.90;4.50;;;13.60;99.90;;;;;;5118054;28;20464;-61
2022/04/24 02:50:39;;;;;;;4.68;4.28;;;13.50;99.90;;;;;;5118185;28;20264;-61
2022/04/24 02:53:06;;;;;;;6.13;4.78;;;13.40;99.90;;;;;;5117758;28;20059;-60
2022/04/24 02:55:32;;;;;;;4.72;4.32;;;13.40;99.90;;;;;;5116931;28;20032;-61
2022/04/24 02:57:58;;;;;;;5.60;4.80;;;13.40;99.90;;;;;;5117687;28;20016;-61
2022/04/24 03:00:39;;;;;;;4.75;4.32;;;13.40;99.90;;;;;;5117127;28;20027;-62
2022/04/24 03:03:06;;;;;;;4.97;4.57;;;13.30;99.90;;;;;;5117526;28;20043;-61
2022/04/24 03:05:32;;;;;;;5.00;4.60;;;13.20;99.90;;;;;;5116674;28;20027;-61
2022/04/24 03:07:58;;;;;;;5.22;4.72;;;13.20;99.90;;;;;;5099688;28;20093;-61
2022/04/24 03:10:24;;;;;;;4.85;4.50;;;13.20;99.90;;;;;;5117404;28;20024;-62
2022/04/24 03:12:50;;;;;;;5.30;4.80;;;13.30;99.90;;;;;;5117162;28;20088;-61
2022/04/24 03:15:15;;;;;;;7.40;4.47;;;13.20;99.90;;;;;;5117393;28;20063;-62
2022/04/24 03:17:42;;;;;;;6.28;4.90;;;13.20;99.90;;;;;;5117415;28;20299;-62
2022/04/24 03:20:10;;;;;;;5.30;4.80;;;13.30;99.90;;;;;;5117338;28;20020;-62
2022/04/24 03:22:36;;;;;;;5.07;4.57;;;13.30;99.90;;;;;;5117392;28;20016;-61
2022/04/24 03:25:04;;;;;;;6.18;5.22;;;13.30;99.90;;;;;;5117303;28;20092;-61
2022/04/24 03:27:30;;;;;;;5.75;5.25;;;13.20;99.90;;;;;;5117262;28;20408;-61
2022/04/24 03:29:56;;;;;;;5.40;4.90;;;13.30;99.90;;;;;;5117806;28;20375;-61
2022/04/24 03:32:21;;;;;;;5.53;4.90;;;13.20;99.90;;;;;;5117099;28;20276;-62
2022/04/24 03:34:47;;;;;;;5.32;4.82;;;13.20;99.90;;;;;;5117061;28;20043;-62
2022/04/24 03:37:13;;;;;;;5.65;5.15;;;13.10;99.90;;;;;;5116958;28;20057;-61
2022/04/24 03:39:39;;;;;;;5.53;5.03;;;13.20;99.90;;;;;;5116528;28;20464;-61
2022/04/24 03:42:06;;;;;;;5.43;4.97;;;13.20;99.90;;;;;;5116344;28;20055;-62
2022/04/24 03:44:33;;;;;;;5.43;5.00;;;13.30;99.90;;;;;;5116915;28;20106;-63
2022/04/24 03:46:59;;;;;;;5.78;5.28;;;13.40;99.90;;;;;;5117093;28;20048;-61
2022/04/24 03:49:26;;;;;;;5.80;5.05;;;13.30;99.90;;;;;;5116196;28;20442;-62
2022/04/24 03:51:52;;;;;;;6.65;5.40;;;13.30;99.90;;;;;;5117157;28;20036;-62
2022/04/24 03:54:18;;;;;;;5.10;4.70;;;13.10;99.90;;;;;;5117177;28;20024;-62
2022/04/24 03:56:44;;;;;;;6.00;5.13;;;13.10;99.90;;;;;;5116894;28;20115;-62
2022/04/24 03:59:10;;;;;;;5.80;5.20;;;13.10;99.90;;;;;;5116112;28;20119;-61
2022/04/24 04:01:36;;;;;;;6.90;4.90;;;13.10;99.90;;;;;;5116751;28;20070;-61
2022/04/24 04:04:02;;;;;;;5.50;5.10;;;13.10;99.90;;;;;;5117269;28;20032;-62
2022/04/24 04:06:28;;;;;;;6.38;5.75;;;13.10;99.90;;;;;;5116900;28;20024;-62
2022/04/24 04:08:54;;;;;;;6.07;5.57;;;13.00;99.90;;;;;;5117124;28;20027;-62
2022/04/24 04:11:20;;;;;;;5.53;5.00;;;13.10;99.90;;;;;;5121142;28;20036;-62
2022/04/24 04:13:46;;;;;;;5.97;5.38;;;13.00;99.90;;;;;;5120829;28;20349;-62
2022/04/24 04:16:12;;;;;;;5.65;5.10;;;13.00;99.90;;;;;;5121115;28;20281;-61
2022/04/24 04:18:38;;;;;;;5.93;5.25;;;13.00;99.90;;;;;;5120153;28;20426;-62
2022/04/24 04:21:04;;;;;;;5.95;5.45;;;13.10;99.90;;;;;;5121045;28;20082;-61
2022/04/24 04:23:30;;;;;;;6.80;5.68;;;13.10;99.90;;;;;;5120790;28;20337;-62
2022/04/24 04:25:56;;;;;;;6.15;5.50;;;13.10;99.90;;;;;;5120332;28;20038;-62
2022/04/24 04:28:22;;;;;;;6.32;5.72;;;13.00;99.90;;;;;;5119481;28;20303;-62
2022/04/24 04:30:48;;;;;;;6.70;5.82;;;13.00;99.90;;;;;;5120104;28;20034;-61
2022/04/24 04:33:14;;;;;;;5.80;5.20;;;13.10;99.90;;;;;;5119664;28;20099;-61
2022/04/24 04:35:40;;;;;;;6.22;5.63;;;13.00;99.90;;;;;;5120121;28;20028;-61
2022/04/24 04:38:06;;;;;;;6.20;5.43;;;13.00;99.90;;;;;;5119993;28;20119;-62
2022/04/24 04:40:32;;;;;;;6.78;6.07;;;12.90;99.90;;;;;;5120018;28;20421;-62
2022/04/24 04:42:58;;;;;;;6.40;5.90;;;12.80;99.90;;;;;;5119341;28;20031;-61
2022/04/24 04:45:26;;;;;;;6.50;5.90;;;12.80;99.90;;;;;;5120284;28;20039;-63
2022/04/24 04:47:52;;;;;;;6.55;5.95;;;12.80;99.90;;;;;;5102484;28;20063;-62
2022/04/24 04:50:18;;;;;;;6.53;6.00;;;12.70;99.90;;;;;;5119913;28;20425;-62
2022/04/24 04:52:44;;;;;;;7.03;6.32;;;12.70;99.90;;;;;;5119820;28;20039;-62
2022/04/24 04:55:10;;;;;;;6.53;5.70;;;12.80;99.90;;;;;;5119030;28;20272;-62
2022/04/24 04:57:36;;;;;;;6.38;5.78;;;12.90;99.90;;;;;;5119834;28;20103;-62
2022/04/24 05:00:07;;;;;;;6.60;6.00;;;12.80;99.90;;;;;;5119734;28;20026;-62
2022/04/24 05:02:39;;;;;;;6.93;6.32;;;12.80;99.90;;;;;;5119704;28;20054;-61
2022/04/24 05:05:06;;;;;;;;;;;12.80;99.90;;;;;;5120119;28;20043;-60
2022/04/24 05:07:32;;;;;;;6.75;6.15;;;12.80;99.90;;;;;;5119021;28;19966;-61
2022/04/24 05:09:58;;;;;;;7.38;6.68;;;12.70;99.90;;;;;;5118716;28;20067;-61
2022/04/24 05:12:27;;;;;;;6.80;6.20;;;12.80;99.90;;;;;;5119440;28;20366;-62
2022/04/24 05:15:00;;;;;;;7.38;6.78;;;12.90;99.90;;;;;;5119352;28;20167;-61
2022/04/24 05:17:27;;;;;;;8.50;6.60;;;12.90;99.90;;;;;;5119343;28;20027;-62
2022/04/24 05:19:53;;;;;;;7.68;6.88;;;12.90;99.90;;;;;;5119351;28;20089;-62
2022/04/24 05:22:19;;;;;;;7.20;6.35;;;13.00;99.90;;;;;;5100656;28;20044;-62
2022/04/24 05:24:45;;;;;;;7.07;6.43;;;13.00;99.90;;;;;;5118545;28;20028;-62
2022/04/24 05:27:11;;;;;;;8.05;7.13;;;13.00;99.90;;;;;;5119344;28;20031;-62
2022/04/24 05:29:36;;;;;;;10.05;7.03;;;13.00;99.90;;;;;;5119104;28;20075;-61
2022/04/24 05:32:03;;;;;;;7.85;7.05;;;12.70;99.90;;;;;;5119238;28;20067;-62
2022/04/24 05:34:28;;;;;;;7.97;7.28;;;12.80;99.90;;;;;;5118489;28;20103;-62
2022/04/24 05:36:54;;;;;;;10.32;7.15;;;12.70;99.90;;;;;;5118977;28;20118;-62
2022/04/24 05:39:20;;;;;;;7.20;6.43;;;12.50;99.90;;;;;;5118479;28;20074;-62
2022/04/24 05:41:46;;;;;;;8.38;7.07;;;12.40;99.90;;;;;;5118918;28;20114;-62
2022/04/24 05:44:11;;;;;;;7.68;6.97;;;12.30;99.90;;;;;;5118025;28;20028;-62
2022/04/24 05:46:37;;;;;;;8.75;7.18;;;12.20;99.90;;;;;;5119016;28;20027;-62
2022/04/24 05:49:03;;;;;;;8.57;7.78;;;12.20;99.90;;;;;;5118897;28;20032;-62
2022/04/24 05:51:29;;;;;;;8.65;7.85;;;12.20;99.90;;;;;;5118773;28;20020;-62
2022/04/24 05:53:55;;;;;;;8.23;7.47;;;12.20;99.90;;;;;;5118633;28;20034;-61
2022/04/24 05:56:21;;;;;;;8.30;7.47;;;12.40;99.90;;;;;;5117997;28;20080;-62
2022/04/24 05:58:47;;;;;;;8.65;7.80;;;12.30;99.90;;;;;;5118471;28;20036;-62
2022/04/24 06:01:16;;;;;;;8.52;7.72;;;12.30;99.90;;;;;;5117978;28;20036;-62
2022/04/24 06:03:41;;;;;;;8.18;7.45;;;12.30;99.90;;;;;;5118549;28;20422;-62
2022/04/24 06:06:08;;;;;;;9.32;8.20;;;12.30;99.90;;;;;;5117731;28;20035;-62
2022/04/24 06:08:33;;;;;;;8.63;7.78;;;12.30;99.90;;;;;;5118334;28;20035;-62
2022/04/24 06:10:59;;;;;;;8.10;7.30;;;12.40;99.90;;;;;;5117617;28;20165;-63
2022/04/24 06:13:26;;;;;;;8.73;7.90;;;12.30;99.90;;;;;;5118396;28;20172;-62
2022/04/24 06:15:55;;;;;;;8.30;7.60;;;12.30;99.90;;;;;;5118575;28;20371;-63
2022/04/24 06:18:21;;;;;;;8.73;7.95;;;12.20;99.90;;;;;;5118299;28;20042;-62
2022/04/24 06:20:47;;;;;;;8.52;7.60;;;12.30;99.90;;;;;;5101272;28;20434;-62
2022/04/24 06:23:13;;;;;;;8.43;7.57;;;12.30;99.90;;;;;;5118315;28;20036;-63
2022/04/24 06:25:39;;;;;;;8.80;7.90;;;12.40;99.90;;;;;;5117375;28;20035;-64
2022/04/24 06:28:05;;;;;;;8.25;7.45;;;12.50;99.90;;;;;;5118126;28;20036;-62
2022/04/24 06:30:35;;;;;;;9.13;8.23;;;12.50;99.90;;;;;;5117341;28;20043;-62
2022/04/24 06:33:01;;;;;;;9.25;8.35;;;12.40;99.90;;;;;;5117800;28;20054;-63
2022/04/24 06:35:27;;;;;;;9.63;8.13;;;12.40;99.90;;;;;;5117731;28;20032;-62
2022/04/24 06:37:55;;;;;;;8.90;7.93;;;12.50;99.90;;;;;;5117052;28;20063;-63
2022/04/24 06:40:25;;;;;;;8.52;7.72;;;12.40;99.90;;;;;;5117912;28;20038;-64
2022/04/24 06:43:06;;;;;;;8.98;8.07;;;12.50;99.90;;;;;;5118018;27;20286;-63
2022/04/24 06:45:36;;;;;;;8.57;7.78;;;12.50;99.90;;;;;;5117560;28;20307;-63
2022/04/24 06:48:04;;;;;;;8.93;8.05;;;12.70;99.90;;;;;;5117903;28;20101;-63
2022/04/24 06:50:30;;;;;;;8.45;7.65;;;12.70;99.90;;;;;;5117597;28;20047;-62
2022/04/24 06:52:59;;;;;;;9.07;8.07;;;12.80;99.90;;;;;;5117669;28;20325;-62
2022/04/24 06:55:26;;;;;;;9.50;7.75;;;12.70;99.90;;;;;;5117547;28;20435;-63
2022/04/24 06:57:52;;;;;;;9.25;8.25;;;12.70;99.90;;;;;;5117802;28;20268;-63
2022/04/24 07:00:20;;;;;;;9.90;8.05;;;12.80;99.90;;;;;;5099772;28;20107;-63
2022/04/24 07:02:47;;;;;;;8.85;8.02;;;12.90;99.90;;;;;;5117421;28;20024;-62
2022/04/24 07:05:13;;;;;;;10.07;7.88;;;13.00;99.90;;;;;;5117960;28;20388;-63
2022/04/24 07:07:39;;;;;;;8.18;7.38;;;13.00;99.90;;;;;;5117588;28;20076;-62
2022/04/24 07:10:05;;;;;;;8.73;7.88;;;13.00;99.90;;;;;;5117336;28;20043;-63
2022/04/24 07:12:31;;;;;;;9.07;8.18;;;12.80;99.90;;;;;;5117338;28;20042;-62
2022/04/24 07:14:57;;;;;;;10.52;7.88;;;12.80;99.90;;;;;;5116876;28;20129;-63
2022/04/24 07:17:22;;;;;;;8.70;7.68;;;13.00;99.90;;;;;;5116444;28;20039;-62
2022/04/24 07:19:48;;;;;;;8.75;7.95;;;13.10;99.90;;;;;;5116433;28;20027;-62
2022/04/24 07:22:16;;;;;;;8.75;7.95;;;13.20;99.90;;;;;;5117247;28;20363;-63
2022/04/24 07:24:42;;;;;;;9.27;8.18;;;13.40;99.90;;;;;;5117285;28;20031;-63
2022/04/24 07:27:08;;;;;;;9.90;8.05;;;13.20;99.90;;;;;;5117328;28;20065;-64
2022/04/24 07:29:34;;;;;;;8.48;7.65;;;13.20;99.90;;;;;;5116236;28;20058;-63
2022/04/24 07:31:59;;;;;;;7.90;7.10;;;13.30;99.90;;;;;;5116341;28;20063;-63
2022/04/24 07:34:25;;;;;;;9.48;7.43;;;13.50;99.90;;;;;;5117039;28;20430;-63
2022/04/24 07:36:51;;;;;;;7.80;7.10;;;13.50;99.90;;;;;;5116176;28;20027;-63
2022/04/24 07:39:17;;;;;;;8.27;7.38;;;13.70;99.90;;;;;;5117004;28;20088;-63
2022/04/24 07:41:42;;;;;;;8.52;7.72;;;13.70;99.90;;;;;;5116434;28;20048;-64
2022/04/24 07:44:08;;;;;;;7.85;7.15;;;13.70;99.90;;;;;;5117391;28;20303;-63
2022/04/24 07:46:34;;;;;;;8.65;7.82;;;13.70;99.90;;;;;;5120510;28;20054;-63
2022/04/24 07:49:00;;;;;;;11.55;7.20;;;13.90;99.90;;;;;;5121280;28;20053;-65
2022/04/24 07:51:26;;;;;;;8.40;7.60;;;14.10;99.90;;;;;;5121689;28;20122;-63
2022/04/24 07:53:52;;;;;;;8.07;7.28;;;14.20;99.90;;;;;;5121284;28;20349;-63
2022/04/24 07:56:17;;;;;;;8.30;7.50;;;14.40;99.90;;;;;;5121160;28;20272;-63
2022/04/24 07:58:43;;;;;;;8.48;7.60;;;14.50;99.90;;;;;;5120635;28;20402;-64
2022/04/24 08:01:11;;;;;;;7.75;7.05;;;14.50;99.90;;;;;;5120833;28;20062;-63
2022/04/24 08:03:37;;;;;;;7.80;7.03;;;14.50;99.90;;;;;;5120788;28;20089;-63
2022/04/24 08:06:02;;;;;;;8.25;7.47;;;14.60;99.90;;;;;;5120831;28;20399;-63
2022/04/24 08:08:28;;;;;;;8.20;7.40;;;14.60;99.90;;;;;;5121290;28;20114;-64
2022/04/24 08:10:56;;;;;;;7.55;6.90;;;14.70;99.90;;;;;;5120781;28;20119;-64
2022/04/24 08:13:23;;;;;;;7.55;6.95;;;14.70;99.90;;;;;;5120068;28;20035;-63
2022/04/24 08:15:50;;;;;;;8.05;7.32;;;14.50;99.90;;;;;;5120853;28;20263;-63
2022/04/24 08:18:17;;;;;;;7.70;7.00;;;14.70;99.90;;;;;;5119873;28;20316;-63
2022/04/24 08:20:45;;;;;;;7.93;7.15;;;14.90;99.90;;;;;;5120512;28;20045;-63
2022/04/24 08:23:12;;;;;;;8.10;6.85;;;14.90;99.90;;;;;;5120485;28;20312;-64
2022/04/24 08:25:38;;;;;;;7.75;7.05;;;15.00;99.90;;;;;;5119585;28;20107;-64
2022/04/24 08:28:07;;;;;;;7.63;6.93;;;14.90;99.90;;;;;;5120361;28;20344;-62
2022/04/24 08:30:34;;;;;;;7.85;7.05;;;15.00;99.90;;;;;;5120446;28;20031;-62
2022/04/24 08:33:00;;;;;;;7.70;7.10;;;15.20;99.90;;;;;;5120353;28;20022;-62
2022/04/24 08:35:27;;;;;;;7.35;6.65;;;15.30;99.90;;;;;;5120379;28;20042;-62
2022/04/24 08:37:53;;;;;;;7.60;6.88;;;15.20;99.90;;;;;;5120231;28;20098;-61
2022/04/24 08:40:21;;;;;;;7.50;6.75;;;15.50;99.90;;;;;;5119492;28;20120;-62
2022/04/24 08:42:47;;;;;;;7.30;6.70;;;15.60;99.90;;;;;;5120164;28;20039;-62
2022/04/24 08:45:15;;;;;;;7.65;6.70;;;15.60;99.90;;;;;;5119961;28;20047;-63
2022/04/24 08:47:42;;;;;;;7.90;6.50;;;15.60;99.90;;;;;;5119417;28;20031;-62
2022/04/24 08:50:10;;;;;;;7.38;6.68;;;15.60;99.90;;;;;;5119940;28;20042;-62
2022/04/24 08:52:36;;;;;;;8.13;7.13;;;15.50;99.90;;;;;;5119817;28;20038;-62
2022/04/24 08:55:03;;;;;;;7.80;6.70;;;15.50;99.90;;;;;;5119734;28;20020;-63
2022/04/24 08:57:31;;;;;;;6.78;6.00;;;15.60;99.90;;;;;;5119888;28;20402;-62
2022/04/24 08:59:59;;;;;;;7.40;6.70;;;15.70;99.90;;;;;;5119768;28;20032;-64
2022/04/24 09:02:24;;;;;;;8.27;7.22;;;15.90;99.90;;;;;;5119705;28;20062;-62
2022/04/24 09:04:52;;;;;;;8.35;7.05;;;16.00;99.90;;;;;;5118816;28;20027;-63
2022/04/24 09:07:19;;;;;;;7.30;6.60;;;16.10;99.90;;;;;;5118836;28;20027;-62
2022/04/24 09:09:50;;;;;;;8.00;6.78;;;16.10;99.90;;;;;;5101455;28;20151;-62
2022/04/24 09:12:24;;;;;;;7.50;6.82;;;16.20;99.90;;;;;;5101697;28;20089;-61
2022/04/24 09:14:53;;;;;;;9.27;6.95;;;16.30;99.90;;;;;;5119458;28;20019;-61
2022/04/24 09:17:23;;;;;;;10.75;7.15;;;16.50;99.90;;;;;;5119325;28;20049;-63
2022/04/24 09:19:50;;;;;;;7.13;6.50;;;16.60;99.90;;;;;;5120181;28;20035;-61
2022/04/24 09:22:17;;;;;;;7.82;6.95;;;16.60;99.90;;;;;;5119408;28;20024;-61
2022/04/24 09:24:43;;;;;;;9.82;7.40;;;16.70;99.90;;;;;;5119327;28;20050;-62
2022/04/24 09:27:11;;;;;;;7.13;6.45;;;16.80;99.90;;;;;;5119230;28;20028;-62
2022/04/24 09:29:40;;;;;;;7.85;7.15;;;16.80;99.90;;;;;;5119068;28;20024;-62
2022/04/24 09:32:11;;;;;;;7.57;6.78;;;17.00;99.90;;;;;;5118580;28;20346;-61
2022/04/24 09:34:37;;;;;;;7.47;6.78;;;17.20;99.90;;;;;;5119421;28;20387;-61
2022/04/24 09:37:05;;;;;;;7.38;6.70;;;17.20;99.90;;;;;;5119322;28;20112;-61
2022/04/24 09:39:33;;;;;;;7.65;6.95;;;17.40;99.90;;;;;;5119182;28;20415;-62
2022/04/24 09:42:04;;;;;;;8.38;6.72;;;17.30;99.90;;;;;;5118971;28;20161;-62
2022/04/24 09:44:47;;;;;;;8.95;7.10;;;17.40;99.90;;;;;;5118726;28;20081;-62
2022/04/24 09:47:16;;;;;;;8.05;6.30;;;17.30;99.90;;;;;;5118109;28;20158;-61
2022/04/24 09:49:45;;;;;;;7.05;6.00;;;17.30;99.90;;;;;;5118740;28;20084;-61
2022/04/24 09:52:12;;;;;;;7.15;6.43;;;17.50;99.90;;;;;;5118733;28;20042;-62
2022/04/24 09:54:39;;;;;;;6.60;6.00;;;17.60;99.90;;;;;;5118723;28;20376;-62
2022/04/24 09:57:08;;;;;;;7.10;5.90;;;17.70;99.90;;;;;;5118728;28;20077;-62
2022/04/24 09:59:38;;;;;;;7.78;6.38;;;17.80;99.90;;;;;;5100918;28;20039;-62
2022/04/24 10:02:06;;;;;;;7.32;6.72;;;17.90;99.90;;;;;;5118864;28;20032;-63
2022/04/24 10:04:36;;;;;;;7.00;6.40;;;18.10;99.90;;;;;;5118438;28;20096;-63
2022/04/24 10:07:06;;;;;;;9.45;6.65;;;18.20;99.90;;;;;;5117893;28;20043;-63
2022/04/24 10:09:36;;;;;;;8.05;6.65;;;18.40;99.10;;;;;;5118377;28;20043;-63
2022/04/24 10:12:24;;;;;;;8.02;6.88;;;18.50;99.60;;;;;;5118372;28;20031;-61
2022/04/24 10:15:05;;;;;;;6.47;5.97;;;18.80;98.40;;;;;;5118313;28;20096;-63
2022/04/24 10:17:56;;;;;;;7.35;6.40;;;18.80;99.30;;;;;;5118238;28;20088;-64
2022/04/24 10:20:36;;;;;;;7.60;6.68;;;18.70;98.90;;;;;;5118596;28;20046;-63
2022/04/24 10:23:02;;;;;;;8.30;6.68;;;18.40;98.60;;;;;;5118787;28;20046;-63
2022/04/24 10:25:40;;;;;;;8.02;6.47;;;18.40;98.30;;;;;;5117549;28;20110;-63
2022/04/24 10:28:40;;;;;;;7.60;6.50;;;18.60;98.20;;;;;;5118029;28;20027;-63
2022/04/24 10:31:09;;;;;;;6.32;5.80;;;18.90;97.80;;;;;;5117938;28;20395;-62
2022/04/24 10:33:36;;;;;;;10.48;6.00;;;19.20;97.80;;;;;;5117876;28;20071;-61
2022/04/24 10:36:05;;;;;;;5.97;5.47;;;19.50;96.50;;;;;;5117542;28;20051;-62
2022/04/24 10:38:44;;;;;;;6.55;5.65;;;19.70;96.40;;;;;;5118370;28;20038;-63
2022/04/24 10:41:24;;;;;;;5.82;5.32;;;19.70;95.50;;;;;;5117158;28;20031;-62
2022/04/24 10:43:57;;;;;;;5.60;5.20;;;19.40;94.80;;;;;;5117903;28;20084;-61
2022/04/24 10:46:29;;;;;;;6.88;6.05;;;19.40;94.90;;;;;;5117594;28;20039;-63
2022/04/24 10:49:08;;;;;;;6.35;5.75;;;19.60;94.60;;;;;;5118353;28;20294;-64
2022/04/24 10:51:36;;;;;;;6.32;5.82;;;20.10;93.70;;;;;;5118008;28;20024;-62
2022/04/24 10:54:13;;;;;;;7.05;5.30;;;21.30;93.40;;;;;;5116781;28;20092;-62
2022/04/24 10:56:42;;;;;;;5.93;5.43;;;22.40;91.80;;;;;;5117999;28;20100;-63
2022/04/24 10:59:14;;;;;;;9.15;6.18;;;23.50;90.10;;;;;;5116795;28;20399;-62
2022/04/24 11:01:47;;;;;;;6.93;5.43;;;24.40;85.50;;;;;;5117494;28;20073;-63
2022/04/24 11:04:16;;;;;;;;;;;24.60;84.40;;;;;;5117864;28;20071;-62
2022/04/24 11:07:00;;;;;;;7.88;5.25;;;25.00;83.70;;;;;;5117348;28;19907;-64
2022/04/24 11:09:37;;;;;;;6.75;5.30;;;25.50;78.60;;;;;;5117374;28;20038;-63
2022/04/24 11:12:07;;;;;;;5.68;5.28;;;25.60;79.20;;;;;;5117079;28;20047;-62
2022/04/24 11:14:34;;;;;;;5.57;5.13;;;25.00;78.30;;;;;;5116623;28;20084;-63
2022/04/24 11:17:02;;;;;;;5.90;5.00;;;25.30;78.70;;;;;;5117420;28;20031;-63
2022/04/24 11:19:36;;;;;;;6.18;5.68;;;25.80;77.40;;;;;;5116263;28;20462;-63
2022/04/24 11:22:12;;;;;;;5.43;4.90;;;26.90;74.40;;;;;;5117249;28;20031;-64
2022/04/24 11:24:40;;;;;;;5.65;5.15;;;27.00;73.10;;;;;;5117364;28;20104;-64
2022/04/24 11:27:09;;;;;;;5.68;5.18;;;27.30;71.20;;;;;;5117461;28;20028;-63
2022/04/24 11:29:35;;;;;;;5.93;5.32;;;27.20;69.00;;;;;;5117304;28;20031;-63
2022/04/24 11:32:02;;;;;;;6.07;5.57;;;26.40;69.60;;;;;;5117161;28;20114;-63
2022/04/24 11:34:28;;;;;;;5.03;4.53;;;26.00;71.10;;;;;;5099320;28;20165;-65
2022/04/24 11:36:59;;;;;;;4.63;4.32;;;26.60;69.30;;;;;;5117085;28;20028;-64
2022/04/24 11:39:25;;;;;;;8.25;5.65;;;26.00;71.20;;;;;;5117093;28;20080;-63
2022/04/24 11:41:56;;;;;;;7.22;5.55;;;26.70;70.00;;;;;;5117255;28;20019;-62
2022/04/24 11:52:40;;;;;;;7.97;5.32;;;24.40;71.90;;;;;;5117119;28;20056;-62
2022/04/24 11:55:16;;;;;;;5.78;5.28;;;25.00;71.90;;;;;;5116907;28;20055;-63
2022/04/24 11:57:43;;;;;;;6.63;5.20;;;25.70;69.50;;;;;;5116938;28;20035;-63
2022/04/24 12:00:18;;;;;;;6.00;5.00;;;25.20;68.40;;;;;;5116883;28;20027;-61
2022/04/24 12:02:45;;;;;;;5.22;4.82;;;24.70;69.70;;;;;;5116853;28;20031;-62
2022/04/24 12:05:11;;;;;;;5.18;4.70;;;23.90;71.20;;;;;;5116879;28;20027;-62
2022/04/24 12:07:38;;;;;;;5.63;5.03;;;24.60;71.50;;;;;;5116795;28;20114;-63
2022/04/24 12:10:09;;;;;;;5.25;4.85;;;25.30;70.40;;;;;;5116963;28;20092;-64
2022/04/24 12:12:47;;;;;;;4.93;4.50;;;27.30;66.00;;;;;;5116834;28;20348;-63
2022/04/24 12:15:14;;;;;;;4.75;4.35;;;27.30;63.60;;;;;;5099578;28;20023;-62
2022/04/24 12:17:58;;;;;;;5.47;4.97;;;26.40;65.70;;;;;;5116524;28;20020;-64
2022/04/24 12:20:40;;;;;;;8.95;5.35;;;25.80;67.10;;;;;;5116714;28;20296;-62
2022/04/24 12:23:10;;;;;;;;;;;26.30;67.30;;;;;;5117186;28;20122;-62
2022/04/24 12:25:53;;;;;;;6.97;5.00;;;27.10;65.70;;;;;;5116670;28;19907;-62
2022/04/24 12:28:41;;;;;;;5.80;4.93;;;28.40;65.00;;;;;;5116833;28;20391;-62
2022/04/24 12:31:26;;;;;;;7.70;4.63;;;28.70;61.80;;;;;;5084513;28;20463;-63
2022/04/24 12:33:54;;;;;;;5.57;5.05;;;28.10;62.40;;;;;;5121120;28;20059;-63
2022/04/24 12:36:20;;;;;;;4.97;4.57;;;29.00;59.00;;;;;;5120319;28;20028;-62
2022/04/24 12:39:01;;;;;;;6.30;4.90;;;28.80;59.90;;;;;;5119575;28;20038;-63
2022/04/24 12:41:28;;;;;;;5.47;4.60;;;30.20;57.50;;;;;;5120394;28;20343;-61
2022/04/24 12:43:58;;;;;;;5.15;4.65;;;30.00;56.40;;;;;;5120608;28;20277;-62
2022/04/24 12:46:24;;;;;;;4.72;3.97;;;29.30;56.60;;;;;;5120095;28;20051;-62
2022/04/24 12:48:52;;;;;;;5.43;4.93;;;30.20;56.50;;;;;;5120347;28;20042;-63
2022/04/24 12:51:26;;;;;;;4.57;3.63;;;31.20;54.30;;;;;;5120203;28;20118;-63
2022/04/24 12:53:57;;;;;;;4.22;3.88;;;32.00;52.80;;;;;;5121136;28;20042;-63
2022/04/24 12:56:24;;;;;;;4.72;4.15;;;31.80;51.40;;;;;;5119266;28;20379;-63
2022/04/24 12:58:50;;;;;;;3.70;3.40;;;30.30;51.70;;;;;;5120681;28;20295;-62
2022/04/24 13:01:16;;;;;;;4.50;4.10;;;29.60;53.60;;;;;;5119099;28;20119;-64